Time;durP1;ratioP1;P1;durP2;ratioP2;P2;SDS_P1;SDS_P2;PMS_P1;PMS_P2;Temp;Humidity;BMP_temperature;BMP_pressure;BME280_temperature;BME280_humidity;BME280_pressure;Samples;Min_cycle;Max_cycle;Signal;HPM_P1;HPM_P2
2022/05/14 00:01:14;;;;;;;9.77;3.95;;;;;;;19.15;49.40;99449.44;3140815;28;20139;-75
2022/05/14 00:02:46;;;;;;;10.25;3.67;;;;;;;18.96;49.16;99415.88;3145511;28;20049;-75
2022/05/14 00:04:18;;;;;;;9.73;3.70;;;;;;;19.26;49.52;99462.53;3145425;28;20059;-75
2022/05/14 00:05:50;;;;;;;9.90;4.57;;;;;;;19.31;49.41;99470.91;3146023;28;20102;-75
2022/05/14 00:07:25;;;;;;;10.40;3.70;;;;;;;19.16;49.71;99437.06;3146427;28;20106;-75
2022/05/14 00:09:01;;;;;;;5.85;4.25;;;;;;;19.20;49.67;99441.97;3145076;28;20103;-75
2022/05/14 00:13:03;;;;;;;8.98;3.75;;;;;;;19.28;49.60;99463.22;3142574;28;20058;-74
2022/05/14 00:14:16;;;;;;;8.20;3.75;;;;;;;19.02;49.48;99425.09;3145803;28;20044;-77
2022/05/14 00:15:48;;;;;;;6.55;3.50;;;;;;;19.17;49.75;99455.44;3145997;28;20194;-77
2022/05/14 00:17:20;;;;;;;5.65;3.50;;;;;;;19.20;50.21;99464.88;3145934;28;20048;-77
2022/05/14 00:18:52;;;;;;;8.32;4.05;;;;;;;19.17;50.11;99460.72;3145568;28;20517;-73
2022/05/14 00:20:24;;;;;;;6.37;3.83;;;;;;;19.13;50.32;99451.34;3145777;28;20445;-73
2022/05/14 00:21:56;;;;;;;8.38;4.25;;;;;;;18.89;50.38;99420.00;3146022;28;20052;-74
2022/05/14 00:23:28;;;;;;;7.47;4.10;;;;;;;19.00;50.59;99442.84;3145870;28;20124;-73
2022/05/14 00:25:00;;;;;;;12.75;3.65;;;;;;;19.07;50.51;99463.28;3139413;28;20056;-73
2022/05/14 00:26:35;;;;;;;6.82;3.78;;;;;;;19.08;50.52;99466.78;3146179;28;20509;-73
2022/05/14 00:28:07;;;;;;;8.38;4.20;;;;;;;19.07;50.38;99463.28;3144501;28;20119;-74
2022/05/14 00:29:39;;;;;;;7.45;3.78;;;;;;;18.93;50.59;99433.75;3146077;28;20044;-76
2022/05/14 00:31:11;;;;;;;6.70;3.60;;;;;;;19.04;50.54;99452.97;3146071;28;20048;-76
2022/05/14 00:32:43;;;;;;;7.60;4.18;;;;;;;18.74;50.34;99394.94;3145121;28;20141;-76
2022/05/14 00:34:15;;;;;;;8.95;4.30;;;;;;;18.79;50.91;99405.94;3145709;28;20110;-76
2022/05/14 00:35:47;;;;;;;9.32;3.95;;;;;;;18.84;50.77;99407.22;3145932;28;20052;-76
2022/05/14 00:37:19;;;;;;;8.00;4.25;;;;;;;18.89;50.93;99417.38;3139028;28;20044;-77
2022/05/14 00:38:52;;;;;;;8.25;4.15;;;;;;;18.78;50.84;99401.63;3145764;28;20433;-77
2022/05/14 00:40:32;;;;;;;12.32;4.18;;;;;;;19.05;51.12;99451.22;3144991;28;20532;-76
2022/05/14 00:42:06;;;;;;;10.98;4.00;;;;;;;19.02;51.15;99448.84;3145782;28;20048;-75
2022/05/14 00:43:49;;;;;;;11.80;4.75;;;;;;;19.00;51.30;99450.75;3145976;28;20048;-75
2022/05/14 00:45:23;;;;;;;9.80;4.82;;;;;;;18.89;51.11;99430.56;3145887;28;20551;-75
2022/05/14 00:47:00;;;;;;;8.50;4.00;;;;;;;18.85;51.25;99432.63;3140991;28;20131;-74
2022/05/14 00:48:39;;;;;;;8.93;4.40;;;;;;;18.82;51.42;99438.16;3145268;28;20060;-76
2022/05/14 00:50:21;;;;;;;9.43;4.78;;;;;;;18.65;51.44;99410.53;3142023;28;20044;-75
2022/05/14 00:51:54;;;;;;;10.68;4.50;;;;;;;18.57;51.59;99391.06;3143452;28;20057;-75
2022/05/14 00:53:32;;;;;;;7.78;5.10;;;;;;;18.73;51.13;99433.69;3145985;28;20506;-75
2022/05/14 00:55:06;;;;;;;9.40;4.43;;;;;;;18.65;51.73;99415.00;3145460;28;20102;-75
2022/05/14 00:56:42;;;;;;;9.90;4.82;;;;;;;18.61;51.47;99414.41;3145578;28;20567;-75
2022/05/14 00:58:30;;;;;;;14.65;5.07;;;;;;;18.83;51.70;99446.91;3145528;28;20056;-75
2022/05/14 01:00:06;;;;;;;13.57;6.15;;;;;;;18.85;51.63;99448.47;3145613;28;20143;-75
2022/05/14 01:01:38;;;;;;;8.75;4.82;;;;;;;18.65;51.71;99422.91;3145083;28;20110;-75
2022/05/14 01:03:11;;;;;;;12.50;4.72;;;;;;;18.87;51.82;99458.88;3145833;28;20053;-74
2022/05/14 01:04:44;;;;;;;11.93;5.25;;;;;;;18.82;51.81;99454.00;3145438;28;20437;-73
2022/05/14 01:06:19;;;;;;;9.57;4.88;;;;;;;18.82;51.87;99454.00;3145135;28;20074;-73
2022/05/14 01:07:53;;;;;;;9.70;6.15;;;;;;;18.82;51.79;99458.44;3145528;28;20109;-73
2022/05/14 01:09:28;;;;;;;14.07;5.30;;;;;;;18.81;52.03;99456.75;3139532;28;20061;-73
2022/05/14 01:11:00;;;;;;;9.13;5.35;;;;;;;18.74;52.10;99442.41;3139084;28;20185;-73
2022/05/14 01:12:34;;;;;;;13.10;5.25;;;;;;;18.79;52.01;99453.44;3145776;28;20060;-76
2022/05/14 01:14:08;;;;;;;11.20;6.30;;;;;;;18.52;52.16;99409.94;3145368;28;20117;-75
2022/05/14 01:15:48;;;;;;;12.48;4.97;;;;;;;18.76;52.46;99457.16;3145524;28;20061;-74
2022/05/14 01:17:21;;;;;;;9.38;5.70;;;;;;;18.74;52.54;99453.81;3145405;28;20449;-72
2022/05/14 01:18:53;;;;;;;12.32;5.78;;;;;;;18.74;52.54;99451.16;3145720;28;20059;-73
2022/05/14 01:20:25;;;;;;;12.80;5.88;;;;;;;18.72;52.48;99452.22;3145111;28;20049;-73
2022/05/14 01:22:08;;;;;;;15.35;5.55;;;;;;;18.71;52.56;99453.19;3145159;28;20113;-72
2022/05/14 01:27:32;;;;;;;13.45;5.53;;;;;;;18.62;52.92;99444.25;3145393;28;20453;-72
2022/05/14 01:29:08;;;;;;;10.05;5.43;;;;;;;18.65;53.31;99450.09;3139328;28;20110;-73
2022/05/14 01:30:46;;;;;;;15.10;5.68;;;;;;;18.64;52.89;99453.72;3145347;28;20044;-72
2022/05/14 01:32:19;;;;;;;12.48;5.68;;;;;;;18.65;53.01;99459.81;3145399;28;20104;-73
2022/05/14 01:33:51;;;;;;;9.35;4.82;;;;;;;18.63;53.02;99453.84;3145325;28;20052;-74
2022/05/14 01:35:25;;;;;;;12.07;5.32;;;;;;;18.64;53.08;99453.72;3145405;28;20143;-72
2022/05/14 01:36:56;;;;;;;13.05;6.47;;;;;;;18.67;52.96;99455.25;3145421;28;20052;-69
2022/05/14 01:38:29;;;;;;;7.68;5.28;;;;;;;18.64;53.30;99453.72;3145553;28;20101;-73
2022/05/14 01:40:01;;;;;;;8.48;5.43;;;;;;;18.64;53.36;99444.97;3145121;28;20064;-71
2022/05/14 01:41:33;;;;;;;8.98;5.47;;;;;;;18.64;53.33;99450.25;3145704;28;20097;-71
2022/05/14 01:43:06;;;;;;;10.13;5.38;;;;;;;18.65;53.31;99449.28;3145362;28;20110;-70
2022/05/14 01:44:38;;;;;;;10.10;5.60;;;;;;;18.46;53.38;99406.94;3145121;28;20409;-75
2022/05/14 01:46:11;;;;;;;12.70;5.75;;;;;;;18.55;53.63;99430.75;3142973;28;20086;-78
2022/05/14 01:47:42;;;;;;;9.20;5.72;;;;;;;18.60;53.38;99439.13;3143267;28;20580;-78
2022/05/14 01:49:14;;;;;;;12.23;5.45;;;;;;;18.18;53.73;99375.84;3147954;28;20063;-77
2022/05/14 01:50:46;;;;;;;10.43;5.80;;;;;;;18.32;53.74;99406.31;3149248;28;20052;-77
2022/05/14 01:52:18;;;;;;;9.23;5.55;;;;;;;18.57;53.72;99441.16;3144918;28;20359;-74
2022/05/14 01:53:51;;;;;;;14.82;6.13;;;;;;;18.18;53.81;99388.19;3145460;28;20048;-77
2022/05/14 01:55:23;;;;;;;12.60;5.30;;;;;;;18.33;53.92;99418.53;3139095;28;20052;-76
2022/05/14 01:56:54;;;;;;;11.68;5.88;;;;;;;18.23;54.16;99407.09;3144692;28;20402;-76
2022/05/14 01:58:39;;;;;;;11.02;5.07;;;;;;;17.85;54.05;99341.75;3145473;28;20485;-75
2022/05/14 02:00:13;;;;;;;11.90;5.95;;;;;;;18.14;54.42;99406.06;3145006;28;20484;-75
2022/05/14 02:01:46;;;;;;;16.75;5.25;;;;;;;18.20;54.39;99415.25;3144964;28;20433;-76
2022/05/14 02:03:17;;;;;;;10.77;5.38;;;;;;;18.44;54.43;99453.72;3145002;28;20480;-76
2022/05/14 02:04:49;;;;;;;18.13;6.00;;;;;;;17.87;54.25;99363.56;3145079;28;20477;-77
2022/05/14 02:06:22;;;;;;;16.23;6.30;;;;;;;18.20;54.33;99412.63;3145034;28;20185;-76
2022/05/14 02:07:54;;;;;;;12.05;5.35;;;;;;;18.15;54.43;99404.25;3140146;28;20098;-76
2022/05/14 02:09:26;;;;;;;15.32;6.00;;;;;;;18.41;54.40;99444.25;3145355;28;20056;-76
2022/05/14 02:10:58;;;;;;;12.60;5.90;;;;;;;18.39;54.79;99444.38;3138441;28;20060;-75
2022/05/14 02:12:30;;;;;;;12.48;6.00;;;;;;;18.37;54.74;99448.97;3144928;28;20052;-76
2022/05/14 02:14:04;;;;;;;7.93;5.57;;;;;;;18.22;54.65;99430.94;3144953;28;20056;-75
2022/05/14 02:15:36;;;;;;;9.18;5.60;;;;;;;18.30;54.62;99450.41;3145089;28;20547;-75
2022/05/14 02:17:08;;;;;;;10.95;5.03;;;;;;;18.21;54.84;99438.00;3145210;28;20049;-75
2022/05/14 02:18:40;;;;;;;12.05;5.70;;;;;;;17.89;54.59;99390.59;3145225;28;20506;-77
2022/05/14 02:20:12;;;;;;;9.27;5.38;;;;;;;18.18;54.85;99441.72;3144818;28;20105;-77
2022/05/14 02:21:44;;;;;;;11.20;5.27;;;;;;;18.21;54.86;99445.91;3144814;28;20118;-76
2022/05/14 02:23:15;;;;;;;12.07;5.65;;;;;;;18.13;54.96;99437.78;3145321;28;20135;-77
2022/05/14 02:24:47;;;;;;;8.23;5.00;;;;;;;17.92;54.92;99404.38;3144788;28;20113;-76
2022/05/14 02:26:19;;;;;;;11.88;5.57;;;;;;;18.02;55.30;99422.06;3145197;28;20383;-74
2022/05/14 02:27:51;;;;;;;9.40;5.30;;;;;;;18.16;55.19;99448.06;3144750;28;20466;-73
2022/05/14 02:29:24;;;;;;;10.43;5.60;;;;;;;17.67;55.27;99370.41;3145091;28;20053;-74
2022/05/14 02:30:56;;;;;;;12.38;5.10;;;;;;;18.14;55.15;99450.84;3144876;28;20055;-74
2022/05/14 02:32:28;;;;;;;8.75;5.35;;;;;;;18.13;55.21;99446.56;3145545;28;20053;-74
2022/05/14 02:34:00;;;;;;;14.75;6.15;;;;;;;17.90;55.14;99411.53;3147277;28;20052;-73
2022/05/14 02:35:32;;;;;;;9.50;5.90;;;;;;;18.11;55.25;99453.75;3147353;28;20414;-76
2022/05/14 02:37:04;;;;;;;13.05;6.03;;;;;;;18.03;55.20;99444.78;3146410;28;20048;-76
2022/05/14 02:38:37;;;;;;;7.63;5.60;;;;;;;18.08;55.27;99453.16;3147221;28;20505;-76
2022/05/14 02:40:09;;;;;;;11.95;6.07;;;;;;;17.92;55.23;99424.56;3147181;28;20067;-74
2022/05/14 02:41:41;;;;;;;11.85;5.72;;;;;;;17.86;55.17;99423.28;3146880;28;20049;-74
2022/05/14 02:43:13;;;;;;;11.30;6.43;;;;;;;18.04;55.46;99449.09;3147201;28;20052;-74
2022/05/14 02:44:47;;;;;;;7.55;5.35;;;;;;;17.93;55.33;99436.81;3146772;28;20599;-74
2022/05/14 02:46:18;;;;;;;7.07;5.55;;;;;;;18.02;55.57;99446.59;3143598;28;20078;-75
2022/05/14 02:47:50;;;;;;;13.23;5.70;;;;;;;17.85;55.58;99418.97;3146763;28;20056;-76
2022/05/14 02:49:21;;;;;;;8.75;5.65;;;;;;;18.02;55.49;99441.31;3150406;28;20112;-76
2022/05/14 02:50:53;;;;;;;10.57;5.40;;;;;;;17.91;55.53;99429.00;3149595;28;20578;-76
2022/05/14 02:52:25;;;;;;;14.02;6.03;;;;;;;17.85;55.59;99418.16;3147125;28;20052;-76
2022/05/14 02:53:57;;;;;;;16.27;5.88;;;;;;;17.98;55.69;99442.50;3146579;28;20590;-75
2022/05/14 02:55:29;;;;;;;13.18;5.40;;;;;;;17.81;55.62;99419.38;3147301;28;20060;-75
2022/05/14 02:57:01;;;;;;;17.48;5.82;;;;;;;17.93;55.72;99448.19;3143145;28;20547;-75
2022/05/14 03:00:24;;;;;;;14.82;6.22;;;;;;;17.86;55.87;99446.97;3147121;28;20053;-75
2022/05/14 03:01:57;;;;;;;11.60;6.18;;;;;;;17.84;56.15;99446.28;3140791;28;20464;-75
2022/05/14 03:03:27;;;;;;;10.45;6.15;;;;;;;17.82;56.29;99442.94;3147040;28;20064;-75
2022/05/14 03:05:01;;;;;;;11.77;6.70;;;;;;;17.81;56.34;99445.72;3146531;28;20048;-73
2022/05/14 03:06:32;;;;;;;9.45;5.68;;;;;;;17.54;56.66;99410.06;3147020;28;20055;-74
2022/05/14 03:08:05;;;;;;;10.13;5.82;;;;;;;17.77;56.52;99447.69;3146881;28;20437;-75
2022/05/14 03:09:38;;;;;;;11.52;5.85;;;;;;;17.49;56.64;99409.59;3146501;28;20064;-76
2022/05/14 03:11:10;;;;;;;12.18;5.55;;;;;;;17.51;56.42;99405.06;3147101;28;20056;-77
2022/05/14 03:12:42;;;;;;;7.38;5.88;;;;;;;17.76;56.65;99446.03;3146669;28;20110;-77
2022/05/14 03:14:15;;;;;;;8.75;5.20;;;;;;;17.22;56.32;99360.00;3140078;28;20564;-76
2022/05/14 03:15:48;;;;;;;7.53;5.27;;;;;;;17.67;56.42;99431.81;3146837;28;20143;-76
2022/05/14 03:17:21;;;;;;;15.93;5.95;;;;;;;17.38;56.48;99384.13;3146819;28;20376;-75
2022/05/14 03:18:53;;;;;;;7.97;5.78;;;;;;;17.77;56.62;99441.59;3146643;28;20126;-75
2022/05/14 03:20:25;;;;;;;12.90;5.70;;;;;;;17.31;56.51;99372.44;3146832;28;20058;-74
2022/05/14 03:21:56;;;;;;;10.25;5.60;;;;;;;17.77;56.79;99441.59;3146481;28;20103;-74
2022/05/14 03:23:28;;;;;;;13.30;6.13;;;;;;;17.74;57.17;99434.78;3147091;28;20174;-74
2022/05/14 03:25:00;;;;;;;13.25;5.75;;;;;;;17.67;57.07;99434.44;3146661;28;20114;-73
2022/05/14 03:26:32;;;;;;;17.60;6.25;;;;;;;17.69;56.99;99431.69;3146118;28;20110;-73
2022/05/14 03:28:05;;;;;;;13.57;5.70;;;;;;;17.67;57.21;99447.59;3146497;28;20052;-73
2022/05/14 03:29:37;;;;;;;14.70;6.38;;;;;;;17.48;57.23;99415.81;3146722;28;20071;-73
2022/05/14 03:31:10;;;;;;;13.90;6.45;;;;;;;17.55;57.49;99430.16;3146627;28;20110;-74
2022/05/14 03:32:42;;;;;;;10.18;6.70;;;;;;;17.61;57.63;99455.16;3146437;28;20052;-73
2022/05/14 03:34:17;;;;;;;18.13;6.35;;;;;;;17.51;57.61;99436.66;3146164;28;20533;-73
2022/05/14 03:35:49;;;;;;;16.25;6.70;;;;;;;17.59;57.75;99457.91;3146529;28;20052;-73
2022/05/14 03:37:21;;;;;;;11.70;5.68;;;;;;;17.59;57.76;99460.53;3146711;28;20433;-74
2022/05/14 03:38:53;;;;;;;10.07;5.28;;;;;;;17.56;57.54;99446.78;3139860;28;20131;-75
2022/05/14 03:40:25;;;;;;;16.05;5.35;;;;;;;17.45;57.25;99416.03;3146359;28;20437;-75
2022/05/14 03:41:57;;;;;;;13.10;5.70;;;;;;;17.62;57.51;99444.50;3146107;28;20047;-75
2022/05/14 03:43:29;;;;;;;11.98;5.97;;;;;;;17.60;57.19;99440.31;3146533;28;20048;-75
2022/05/14 03:45:01;;;;;;;16.95;5.75;;;;;;;17.64;57.17;99444.41;3146276;28;20139;-75
2022/05/14 03:46:35;;;;;;;12.02;5.57;;;;;;;17.37;57.12;99408.78;3142035;28;20506;-75
2022/05/14 03:48:07;;;;;;;16.75;6.70;;;;;;;17.58;57.09;99447.53;3146497;28;20049;-73
2022/05/14 03:49:39;;;;;;;16.63;6.20;;;;;;;17.50;57.10;99427.88;3146025;28;20106;-73
2022/05/14 03:51:10;;;;;;;15.10;5.43;;;;;;;17.71;57.00;99450.81;3146265;28;20512;-74
2022/05/14 03:52:42;;;;;;;14.48;5.90;;;;;;;17.68;56.92;99444.00;3146398;28;20166;-74
2022/05/14 03:54:13;;;;;;;9.07;5.90;;;;;;;17.69;56.98;99468.56;3145985;28;20543;-73
2022/05/14 03:55:45;;;;;;;14.82;5.30;;;;;;;17.72;56.87;99465.69;3146119;28;20057;-73
2022/05/14 03:57:17;;;;;;;13.73;5.70;;;;;;;17.71;56.90;99469.25;3146317;28;20096;-73
2022/05/14 03:58:49;;;;;;;11.70;5.10;;;;;;;17.71;56.71;99470.09;3146132;28;20445;-73
2022/05/14 04:00:21;;;;;;;13.05;5.18;;;;;;;17.61;56.73;99458.63;3146339;28;20055;-73
2022/05/14 04:01:54;;;;;;;11.88;5.05;;;;;;;17.70;56.74;99473.69;3139670;28;20071;-73
2022/05/14 04:03:27;;;;;;;10.40;5.75;;;;;;;17.48;56.60;99445.63;3146154;28;20057;-73
2022/05/14 04:04:59;;;;;;;7.18;4.38;;;;;;;17.68;56.52;99477.41;3145931;28;20056;-73
2022/05/14 04:06:31;;;;;;;9.98;5.47;;;;;;;17.68;56.46;99474.78;3146088;28;20052;-73
2022/05/14 04:08:03;;;;;;;16.17;6.63;;;;;;;17.59;56.26;99462.34;3145996;28;20091;-73
2022/05/14 04:09:35;;;;;;;13.10;5.70;;;;;;;17.68;56.08;99472.16;3142305;28;20110;-73
2022/05/14 04:11:06;;;;;;;10.73;6.13;;;;;;;17.38;56.13;99423.59;3145933;28;20048;-73
2022/05/14 04:12:39;;;;;;;16.98;8.52;;;;;;;17.74;56.02;99482.19;3146253;28;20060;-73
2022/05/14 04:14:11;;;;;;;15.27;8.77;;;;;;;17.76;55.85;99482.91;3145781;28;20062;-73
2022/05/14 04:15:43;;;;;;;11.57;5.40;;;;;;;17.78;55.71;99486.28;3145541;28;20083;-73
2022/05/14 04:17:16;;;;;;;14.02;8.45;;;;;;;17.76;55.84;99492.63;3146257;28;20108;-73
2022/05/14 04:18:48;;;;;;;7.85;4.70;;;;;;;17.74;55.41;99496.19;3145854;28;20098;-73
2022/05/14 04:20:20;;;;;;;12.27;5.50;;;;;;;17.77;55.48;99492.47;3145616;28;20087;-73
2022/05/14 04:21:52;;;;;;;15.85;5.32;;;;;;;17.81;55.63;99496.59;3145928;28;20277;-72
2022/05/14 04:23:25;;;;;;;15.23;5.70;;;;;;;17.81;55.56;99499.22;3145573;28;20098;-71
2022/05/14 04:24:57;;;;;;;13.85;5.10;;;;;;;17.57;55.49;99448.47;3146181;28;20052;-73
2022/05/14 04:26:29;;;;;;;12.60;5.65;;;;;;;17.88;55.34;99502.19;3146106;28;20048;-73
2022/05/14 04:28:01;;;;;;;15.20;8.00;;;;;;;17.89;55.22;99501.22;3145554;28;20117;-73
2022/05/14 04:29:32;;;;;;;9.35;6.43;;;;;;;17.86;55.07;99501.47;3146030;28;20052;-71
2022/05/14 04:31:05;;;;;;;12.10;6.50;;;;;;;17.88;54.99;99502.19;3145703;28;20108;-71
2022/05/14 04:32:38;;;;;;;16.00;5.37;;;;;;;17.93;54.92;99505.31;3145364;28;20045;-72
2022/05/14 04:34:10;;;;;;;;;;;;;;;17.93;54.99;99508.78;3146253;28;20056;-72
2022/05/14 04:35:41;;;;;;;8.25;5.00;;;;;;;17.94;54.88;99513.06;3145686;28;20355;-73
2022/05/14 04:37:13;;;;;;;10.93;5.32;;;;;;;17.98;54.78;99507.56;3145784;28;20151;-73
2022/05/14 04:38:45;;;;;;;7.32;4.70;;;;;;;18.01;54.55;99504.66;3145860;28;20136;-73
2022/05/14 04:40:17;;;;;;;10.88;4.60;;;;;;;18.04;54.41;99504.41;3145537;28;20055;-73
2022/05/14 04:41:49;;;;;;;7.88;4.78;;;;;;;18.07;54.56;99509.44;3145741;28;20106;-73
2022/05/14 04:43:21;;;;;;;11.95;4.20;;;;;;;18.07;54.40;99507.66;3146037;28;20117;-73
2022/05/14 04:44:52;;;;;;;10.05;4.95;;;;;;;18.08;54.52;99504.06;3145630;28;20106;-73
2022/05/14 04:46:24;;;;;;;8.00;4.78;;;;;;;17.88;54.14;99475.84;3138356;28;20052;-74
2022/05/14 04:47:57;;;;;;;9.68;4.53;;;;;;;17.87;54.13;99469.75;3135469;28;20048;-73
2022/05/14 04:49:30;;;;;;;;;;;;;;;18.11;54.29;99509.09;3140911;28;20079;-72
2022/05/14 04:51:03;;;;;;;7.10;4.40;;;;;;;18.08;54.12;99505.88;3135904;28;19924;-73
2022/05/14 04:52:35;;;;;;;10.40;5.63;;;;;;;18.09;54.29;99510.16;3135266;28;20053;-77
2022/05/14 04:54:08;;;;;;;10.73;5.57;;;;;;;18.12;53.98;99515.19;3135510;28;20444;-74
2022/05/14 04:55:40;;;;;;;14.93;4.57;;;;;;;18.01;54.11;99497.59;3135830;28;20059;-74
2022/05/14 04:57:12;;;;;;;12.73;5.03;;;;;;;18.12;54.28;99509.91;3136303;28;20314;-74
2022/05/14 04:58:44;;;;;;;11.15;4.72;;;;;;;18.12;54.12;99505.47;3136838;28;20048;-75
2022/05/14 05:00:18;;;;;;;10.38;4.95;;;;;;;17.95;54.07;99477.00;3136030;28;20540;-75
2022/05/14 05:03:37;;;;;;;8.57;4.03;;;;;;;17.99;53.76;99477.63;3136446;28;19925;-72
2022/05/14 05:05:09;;;;;;;9.10;4.53;;;;;;;18.00;53.68;99472.22;3133363;28;20083;-71
2022/05/14 05:06:41;;;;;;;15.80;4.38;;;;;;;18.05;53.49;99479.75;3135667;28;20063;-72
2022/05/14 05:08:14;;;;;;;9.93;4.47;;;;;;;18.18;53.44;99504.97;3135176;28;20500;-72
2022/05/14 05:09:54;;;;;;;8.32;4.32;;;;;;;18.23;53.23;99507.25;3135531;28;20083;-72
2022/05/14 05:11:26;;;;;;;7.57;4.55;;;;;;;18.13;52.95;99490.50;3135325;28;20049;-71
2022/05/14 05:12:58;;;;;;;6.53;4.55;;;;;;;18.33;53.38;99518.69;3135193;28;20067;-71
2022/05/14 05:14:30;;;;;;;17.95;5.35;;;;;;;18.39;53.01;99517.34;3134546;28;20558;-72
2022/05/14 05:16:03;;;;;;;8.68;4.18;;;;;;;18.42;52.99;99507.41;3135552;28;20087;-72
2022/05/14 05:17:34;;;;;;;11.85;4.50;;;;;;;18.53;52.91;99518.88;3135035;28;20067;-72
2022/05/14 05:19:08;;;;;;;15.40;4.90;;;;;;;18.60;53.02;99517.38;3134896;28;20056;-72
2022/05/14 05:20:43;;;;;;;11.02;4.93;;;;;;;18.68;52.98;99514.13;3135764;28;20121;-73
2022/05/14 05:22:16;;;;;;;7.70;4.70;;;;;;;18.74;52.73;99511.00;3136420;28;20048;-71
2022/05/14 05:23:48;;;;;;;11.65;5.18;;;;;;;18.76;52.47;99515.19;3136234;28;20087;-74
2022/05/14 05:25:21;;;;;;;8.15;4.70;;;;;;;18.77;52.56;99516.84;3136031;28;20151;-71
2022/05/14 05:27:02;;;;;;;12.38;5.15;;;;;;;18.80;52.65;99516.59;3136667;28;20049;-73
2022/05/14 05:28:37;;;;;;;10.40;4.80;;;;;;;18.82;52.40;99522.59;3136758;28;20087;-73
2022/05/14 05:30:11;;;;;;;9.27;4.30;;;;;;;18.86;52.22;99521.34;3136374;28;20052;-72
2022/05/14 05:33:39;;;;;;;8.63;4.57;;;;;;;18.95;51.95;99511.00;3135727;28;20423;-74
2022/05/14 05:35:16;;;;;;;9.70;5.03;;;;;;;19.06;52.13;99518.84;3136552;28;20068;-75
2022/05/14 05:36:48;;;;;;;13.35;5.55;;;;;;;19.12;51.79;99520.97;3136493;28;20048;-78
2022/05/14 05:38:24;;;;;;;10.32;5.13;;;;;;;19.18;51.91;99509.88;3135995;28;20319;-73
2022/05/14 05:40:04;;;;;;;17.83;5.07;;;;;;;19.23;51.76;99507.69;3130282;28;20537;-74
2022/05/14 05:43:29;;;;;;;10.18;5.60;;;;;;;19.36;51.55;99504.81;3126939;28;20068;-74
2022/05/14 05:45:20;;;;;;;10.57;5.00;;;;;;;19.31;51.40;99494.66;3134214;28;20820;-75
2022/05/14 05:47:00;;;;;;;25.73;11.00;;;;;;;19.18;51.36;99457.09;3133363;28;20048;-73
2022/05/14 05:48:35;;;;;;;15.77;8.27;;;;;;;19.59;51.29;99513.38;3134726;28;20114;-72
2022/05/14 05:50:10;;;;;;;19.77;8.88;;;;;;;19.46;51.11;99478.44;3137623;28;20122;-72
2022/05/14 05:51:44;;;;;;;11.60;5.30;;;;;;;19.76;51.00;99519.88;3136053;28;20484;-71
2022/05/14 05:53:17;;;;;;;10.10;4.55;;;;;;;19.84;50.87;99511.25;3136363;28;20045;-71
2022/05/14 05:56:46;;;;;;;11.48;4.70;;;;;;;20.02;50.78;99516.72;3135283;28;20525;-70
2022/05/14 05:58:20;;;;;;;8.10;4.93;;;;;;;20.03;50.64;99506.03;3134610;28;20056;-69
2022/05/14 05:59:53;;;;;;;;;;;;;;;20.23;50.53;99518.28;3135754;28;20110;-68
2022/05/14 06:01:26;;;;;;;13.60;4.93;;;;;;;20.35;50.26;99521.66;3134612;28;19982;-69
2022/05/14 06:02:59;;;;;;;7.13;3.70;;;;;;;20.48;49.67;99531.09;3135587;28;20052;-69
2022/05/14 06:04:31;;;;;;;17.35;5.55;;;;;;;20.55;49.37;99521.66;3135074;28;20795;-72
2022/05/14 06:06:04;;;;;;;15.85;5.80;;;;;;;20.61;48.82;99529.03;3134546;28;20099;-72
2022/05/14 06:07:39;;;;;;;15.63;9.63;;;;;;;20.43;48.67;99486.56;3136515;28;20063;-72
2022/05/14 06:09:12;;;;;;;30.50;18.90;;;;;;;20.48;48.50;99478.22;3131853;28;20084;-71
2022/05/14 06:10:44;;;;;;;;;;;;;;;20.75;48.00;99515.38;3137776;28;20088;-71
2022/05/14 06:12:17;;;;;;;10.32;4.65;;;;;;;20.77;47.88;99517.91;3137901;28;20011;-78
2022/05/14 06:13:50;;;;;;;16.75;4.32;;;;;;;20.82;47.64;99519.16;3136975;28;20504;-71
2022/05/14 06:15:22;;;;;;;13.18;4.00;;;;;;;20.79;47.79;99508.81;3137300;28;20110;-72
2022/05/14 06:16:57;;;;;;;7.72;4.03;;;;;;;20.93;47.74;99515.50;3137734;28;20052;-68
2022/05/14 06:18:30;;;;;;;10.07;3.97;;;;;;;21.02;47.29;99521.75;3133444;28;20223;-66
2022/05/14 06:20:05;;;;;;;9.02;4.30;;;;;;;21.09;47.20;99515.75;3137834;28;20063;-68
2022/05/14 06:21:38;;;;;;;8.30;4.30;;;;;;;21.21;47.31;99524.34;3137320;28;20052;-69
2022/05/14 06:23:35;;;;;;;9.73;4.03;;;;;;;21.30;47.20;99515.53;3137293;28;20599;-83
2022/05/14 06:25:12;;;;;;;5.97;4.15;;;;;;;21.39;46.96;99521.81;3130061;28;20064;-78
2022/05/14 06:26:44;;;;;;;8.20;4.93;;;;;;;21.47;46.59;99521.06;3138355;28;20064;-73
2022/05/14 06:31:02;;;;;;;;;;;;;;;;;;;;;
2022/05/14 06:35:02;;;;;;;15.18;5.47;;;;;;;21.57;45.94;99522.69;3131274;28;20064;-80
2022/05/14 06:36:56;;;;;;;8.15;4.65;;;;;;;21.66;46.21;99523.63;3133634;28;20056;-83
2022/05/14 06:38:33;;;;;;;5.68;3.97;;;;;;;21.29;45.98;99455.59;3136683;28;20114;-77
2022/05/14 06:40:06;;;;;;;14.63;4.32;;;;;;;21.14;45.97;99414.69;3137146;28;20160;-79
2022/05/14 06:41:41;;;;;;;12.23;4.97;;;;;;;21.95;46.11;99523.47;3137328;28;20060;-72
2022/05/14 06:43:15;;;;;;;17.67;5.47;;;;;;;22.07;46.17;99528.59;3137875;28;20454;-67
2022/05/14 06:44:50;;;;;;;9.07;4.80;;;;;;;22.19;45.95;99524.75;3137820;28;20600;-69
2022/05/14 06:46:22;;;;;;;11.70;4.75;;;;;;;22.30;45.73;99521.84;3134805;28;20532;-68
2022/05/14 06:47:54;;;;;;;5.50;4.10;;;;;;;22.30;45.33;99508.59;3137005;28;20052;-71
2022/05/14 06:49:27;;;;;;;7.50;4.30;;;;;;;22.51;45.34;99526.88;3141647;28;20063;-71
2022/05/14 06:51:02;;;;;;;10.55;4.57;;;;;;;22.37;44.63;99492.94;3137165;28;20075;-69
2022/05/14 06:52:38;;;;;;;8.55;4.43;;;;;;;22.68;44.76;99533.16;3140297;28;20098;-74
2022/05/14 06:54:17;;;;;;;8.00;4.18;;;;;;;22.71;44.84;99509.78;3146760;28;20143;-82
2022/05/14 06:56:25;;;;;;;12.63;3.97;;;;;;;;;;3146906;28;20128;-82
2022/05/14 06:58:11;;;;;;;17.15;6.88;;;;;;;22.88;44.85;99492.16;3120462;28;20509;-79
2022/05/14 06:59:44;;;;;;;10.05;6.40;;;;;;;23.19;44.38;99526.25;3146869;28;20871;-73
2022/05/14 07:01:17;;;;;;;13.00;5.32;;;;;;;23.31;44.40;99525.00;3143197;28;20122;-72
2022/05/14 07:02:51;;;;;;;9.48;4.00;;;;;;;23.45;44.10;99526.22;3146497;28;20044;-74
2022/05/14 07:08:02;;;;;;;9.48;4.35;;;;;;;23.72;43.61;99533.19;3146828;28;20056;-72
2022/05/14 07:09:36;;;;;;;9.52;4.22;;;;;;;23.76;43.26;99531.88;3146662;28;20057;-72
2022/05/14 07:11:08;;;;;;;8.68;4.00;;;;;;;23.81;43.07;99534.88;3146411;28;20049;-73
2022/05/14 07:12:40;;;;;;;6.68;4.22;;;;;;;23.88;42.82;99528.91;3146466;28;20049;-77
2022/05/14 07:14:14;;;;;;;7.70;4.97;;;;;;;23.94;42.63;99531.75;3146540;28;20044;-73
2022/05/14 07:15:46;;;;;;;17.35;8.15;;;;;;;23.99;42.76;99525.97;3146716;28;20052;-76
2022/05/14 07:17:18;;;;;;;8.63;4.65;;;;;;;23.99;42.07;99518.00;3146242;28;20052;-75
2022/05/14 07:18:50;;;;;;;18.75;9.77;;;;;;;24.13;42.31;99533.28;3146578;28;20044;-76
2022/05/14 07:20:24;;;;;;;28.55;12.40;;;;;;;24.23;42.34;99538.50;3146581;28;20110;-79
2022/05/14 07:22:16;;;;;;;11.00;6.28;;;;;;;23.95;41.92;99476.75;3146198;28;20128;-78
2022/05/14 07:24:19;;;;;;;11.82;6.18;;;;;;;24.22;41.82;99508.38;3146466;28;20045;-79
2022/05/14 07:26:03;;;;;;;12.85;5.10;;;;;;;24.49;41.70;99533.91;3146385;28;20139;-79
2022/05/14 07:27:34;;;;;;;8.48;5.13;;;;;;;24.56;41.85;99525.25;3146735;28;20086;-71
2022/05/14 07:29:12;;;;;;;8.80;4.60;;;;;;;24.63;42.07;99529.72;3146480;28;20206;-78
2022/05/14 07:30:56;;;;;;;10.45;5.28;;;;;;;24.50;42.05;99479.66;3146309;28;20101;-77
2022/05/14 07:32:28;;;;;;;11.50;4.20;;;;;;;24.94;42.34;99526.41;3146478;28;20044;-72
2022/05/14 07:34:00;;;;;;;5.55;3.95;;;;;;;25.01;41.50;99527.38;3145526;28;20505;-73
2022/05/14 07:35:34;;;;;;;7.43;4.35;;;;;;;25.11;41.08;99527.19;3146604;28;20057;-77
2022/05/14 07:37:08;;;;;;;7.80;4.15;;;;;;;25.21;41.23;99532.38;3139841;28;20083;-72
2022/05/14 07:38:42;;;;;;;11.20;4.68;;;;;;;25.30;41.09;99532.19;3145772;28;20070;-68
2022/05/14 07:40:18;;;;;;;5.80;4.18;;;;;;;25.30;40.71;99510.84;3146223;28;20052;-73
2022/05/14 07:41:54;;;;;;;12.85;4.93;;;;;;;25.23;40.41;99503.69;3146302;28;20075;-76
2022/05/14 07:43:30;;;;;;;9.20;4.65;;;;;;;25.25;40.32;99493.72;3146222;28;20059;-74
2022/05/14 07:45:05;;;;;;;9.88;4.60;;;;;;;25.58;40.62;99547.75;3146324;28;20426;-74